createdAt,value
2023-02-15T00:02:47.539Z,10
2023-02-15T00:12:52.166Z,7
2023-02-15T00:22:59.275Z,9
2023-02-15T00:33:03.997Z,9
2023-02-15T00:43:10.507Z,9
2023-02-15T00:53:16.356Z,7
2023-02-15T01:03:22.292Z,11
2023-02-15T01:13:27.909Z,9
2023-02-15T01:23:34.191Z,9
2023-02-15T01:33:38.299Z,8
2023-02-15T01:43:44.104Z,10
2023-02-15T02:03:55.031Z,12
2023-02-15T02:14:00.969Z,11
2023-02-15T02:24:07.976Z,10
2023-02-15T02:34:12.697Z,10
2023-02-15T02:44:19.242Z,11
2023-02-15T02:54:23.333Z,11
2023-02-15T03:04:28.112Z,9
2023-02-15T03:14:34.528Z,9
2023-02-15T03:24:39.577Z,9
2023-02-15T03:34:45.028Z,9
2023-02-15T03:44:52.557Z,10
2023-02-15T03:54:59.040Z,14
2023-02-15T04:05:08.171Z,10
2023-02-15T04:15:10.434Z,11
2023-02-15T04:25:14.569Z,14
2023-02-15T04:35:20.733Z,9
2023-02-15T04:45:27.140Z,7
2023-02-15T04:55:32.144Z,10
2023-02-15T05:05:38.090Z,7
2023-02-15T05:15:45.478Z,7
2023-02-15T05:25:50.289Z,6
2023-02-15T05:35:56.253Z,8
2023-02-15T05:46:02.499Z,7
2023-02-15T05:56:07.722Z,6
2023-02-15T06:06:11.784Z,7
2023-02-15T06:16:17.897Z,8
2023-02-15T06:26:23.986Z,11
2023-02-15T06:36:28.964Z,7
2023-02-15T06:46:35.477Z,13
2023-02-15T06:56:40.189Z,8
2023-02-15T07:06:46.052Z,7
2023-02-15T07:16:52.325Z,6
2023-02-15T07:26:58.022Z,10
2023-02-15T07:37:03.147Z,8
2023-02-15T07:47:09.866Z,7
2023-02-15T07:57:19.664Z,8
2023-02-15T08:07:23.330Z,12
2023-02-15T08:17:30.106Z,6
2023-02-15T08:27:37.145Z,7
2023-02-15T08:37:44.350Z,6
2023-02-15T08:47:49.927Z,7
2023-02-15T08:57:54.068Z,7
2023-02-15T09:08:01.841Z,8
2023-02-15T09:18:06.525Z,6
2023-02-15T09:28:12.427Z,8
2023-02-15T09:38:18.509Z,9
2023-02-15T09:48:21.881Z,8
2023-02-15T09:58:27.528Z,9
2023-02-15T10:08:31.209Z,10
2023-02-15T10:18:37.653Z,8
2023-02-15T10:28:42.385Z,7
2023-02-15T10:38:49.298Z,6
2023-02-15T10:48:55.650Z,5
2023-02-15T10:59:02.685Z,8
2023-02-15T11:09:08.916Z,12
2023-02-15T11:19:16.350Z,12
2023-02-15T11:29:23.884Z,8
2023-02-15T11:39:28.821Z,6
2023-02-15T11:49:34.748Z,9
2023-02-15T11:59:40.408Z,7
2023-02-15T12:09:48.640Z,6
2023-02-15T12:19:53.869Z,5
2023-02-15T12:29:58.651Z,4
2023-02-15T12:40:05.239Z,5
2023-02-15T12:50:12.727Z,5
2023-02-15T13:00:15.930Z,6
2023-02-15T13:10:19.167Z,5
2023-02-15T13:20:27.445Z,6
2023-02-15T13:30:32.484Z,4
2023-02-15T13:40:36.646Z,6
2023-02-15T13:50:41.003Z,5
2023-02-15T14:00:46.399Z,7
2023-02-15T14:10:51.688Z,6
2023-02-15T14:20:59.170Z,6
2023-02-15T14:31:04.786Z,7
2023-02-15T14:41:09.049Z,7
2023-02-15T14:51:15.857Z,6
2023-02-15T15:01:20.498Z,6
2023-02-15T15:11:44.109Z,7
2023-02-15T15:21:40.173Z,13
2023-02-15T15:31:47.037Z,9
2023-02-15T15:41:52.677Z,14
2023-02-15T15:51:57.040Z,8
2023-02-15T16:02:03.562Z,8
2023-02-15T16:12:10.421Z,10
2023-02-15T16:22:17.080Z,10
2023-02-15T16:32:22.796Z,11
2023-02-15T16:42:28.426Z,15
2023-02-15T16:52:34.958Z,14
2023-02-15T17:02:56.862Z,19
2023-02-15T17:12:50.196Z,16
2023-02-15T17:22:57.429Z,20
2023-02-15T17:33:05.537Z,27
2023-02-15T17:43:10.324Z,28
2023-02-15T17:53:15.804Z,23
2023-02-15T18:03:22.133Z,30
2023-02-15T18:13:28.450Z,20
2023-02-15T18:23:34.106Z,12
2023-02-15T18:33:40.698Z,38
2023-02-15T18:43:46.839Z,33
2023-02-15T18:53:53.105Z,16
2023-02-15T19:03:59.216Z,9
2023-02-15T19:14:07.318Z,8
2023-02-15T19:24:10.990Z,11
2023-02-15T19:34:17.149Z,13
2023-02-15T19:44:23.349Z,18
2023-02-15T19:54:28.189Z,10
2023-02-15T20:04:33.497Z,10
2023-02-15T20:14:36.889Z,11
2023-02-15T20:24:48.861Z,12
2023-02-15T20:34:56.428Z,10
2023-02-15T20:45:04.496Z,9
2023-02-15T20:55:09.787Z,9
2023-02-15T21:05:18.476Z,8
2023-02-15T21:15:25.045Z,7
2023-02-15T21:25:28.594Z,9
2023-02-15T21:35:34.935Z,8
2023-02-15T21:45:42.302Z,7
2023-02-15T21:55:47.674Z,10
2023-02-15T22:05:54.650Z,10
2023-02-15T22:15:59.094Z,8
2023-02-15T22:26:04.685Z,7
2023-02-15T22:36:12.848Z,8
2023-02-15T22:46:18.965Z,7
2023-02-15T22:56:27.044Z,7
2023-02-15T23:06:29.102Z,8
2023-02-15T23:16:35.520Z,6
2023-02-15T23:26:46.997Z,6
2023-02-15T23:36:49.727Z,9
2023-02-15T23:46:57.046Z,9
2023-02-15T23:57:01.498Z,7
